createdAt,value
2019-01-08T00:00:38.567Z,100065.27
2019-01-08T00:03:04.799Z,100067.85
2019-01-08T00:05:31.043Z,100060.95
2019-01-08T00:07:57.179Z,100054.48
2019-01-08T00:10:23.436Z,100053.17
2019-01-08T00:12:49.662Z,100047.07
2019-01-08T00:15:15.891Z,100035.81
2019-01-08T00:17:42.131Z,100035.36
2019-01-08T00:20:08.385Z,100028.50
2019-01-08T00:22:34.615Z,100034.94
2019-01-08T00:25:00.842Z,100041.38
2019-01-08T00:27:27.104Z,100038.72
2019-01-08T00:29:53.332Z,100035.22
2019-01-08T00:32:19.479Z,100034.77
2019-01-08T00:34:45.707Z,100038.61
2019-01-08T00:37:11.960Z,100040.73
2019-01-08T00:39:38.203Z,100037.70
2019-01-08T00:42:04.350Z,100035.13
2019-01-08T00:44:30.480Z,100028.66
2019-01-08T00:46:56.749Z,100035.94
2019-01-08T00:49:22.988Z,100034.66
2019-01-08T00:51:49.240Z,99746.28
2019-01-08T00:54:15.480Z,100033.27
2019-01-08T00:56:41.715Z,100037.53
2019-01-08T00:59:07.951Z,100039.97
2019-01-08T01:01:34.097Z,100051.98
2019-01-08T01:04:00.334Z,100041.64
2019-01-08T01:07:25.843Z,100042.06
2019-01-08T01:09:52.147Z,100037.30
2019-01-08T01:12:18.403Z,100038.94
2019-01-08T01:14:44.702Z,100029.37
2019-01-08T01:17:10.974Z,100027.59
2019-01-08T01:19:37.231Z,99931.52
2019-01-08T01:22:03.515Z,100026.58
2019-01-08T01:24:29.785Z,100037.63
2019-01-08T01:26:56.052Z,100028.92
2019-01-08T01:29:22.308Z,100030.47
2019-01-08T01:31:48.559Z,100027.84
2019-01-08T01:34:14.800Z,100033.73
2019-01-08T01:36:41.033Z,100026.77
2019-01-08T01:39:07.285Z,100031.87
2019-01-08T01:41:33.517Z,100028.84
2019-01-08T01:43:59.768Z,100022.78
2019-01-08T01:46:25.899Z,100027.88
2019-01-08T01:48:59.331Z,100022.20
2019-01-08T01:51:25.569Z,100029.41
2019-01-08T01:53:51.721Z,100027.63
2019-01-08T01:56:17.948Z,100020.36
2019-01-08T01:58:44.194Z,100015.27
2019-01-08T02:01:10.336Z,100016.09
2019-01-08T02:03:36.588Z,100010.91
2019-01-08T02:06:02.837Z,100007.06
2019-01-08T02:08:29.086Z,100002.41
2019-01-08T02:10:55.327Z,100011.87
2019-01-08T02:13:21.572Z,100010.58
2019-01-08T02:15:47.708Z,100014.44
2019-01-08T02:18:13.954Z,100016.52
2019-01-08T02:20:40.184Z,99791.84
2019-01-08T02:23:06.430Z,100009.16
2019-01-08T02:25:32.559Z,100003.11
2019-01-08T02:27:58.809Z,100004.40
2019-01-08T02:30:25.046Z,100008.30
2019-01-08T02:32:51.277Z,100001.45
2019-01-08T02:35:17.522Z,100004.95
2019-01-08T02:37:43.670Z,100006.77
2019-01-08T02:40:09.937Z,100009.39
2019-01-08T02:42:36.187Z,100012.05
2019-01-08T02:47:56.599Z,100011.84
2019-01-08T02:50:22.851Z,100006.86
2019-01-08T02:52:49.087Z,100000.05
2019-01-08T02:55:15.347Z,99999.60
2019-01-08T02:57:41.581Z,99994.50
2019-01-08T03:00:07.829Z,99989.35
2019-01-08T03:02:33.963Z,99986.36
2019-01-08T03:05:00.225Z,99982.09
2019-01-08T03:07:26.444Z,99974.75
2019-01-08T03:09:52.693Z,99973.05
2019-01-08T03:12:18.829Z,99971.34
2019-01-08T03:14:44.979Z,99973.53
2019-01-08T03:17:11.217Z,99972.74
2019-01-08T03:19:37.373Z,99964.23
2019-01-08T03:22:03.602Z,99967.63
2019-01-08T03:24:29.844Z,99968.88
2019-01-08T03:26:56.083Z,99965.48
2019-01-08T03:29:22.246Z,99966.77
2019-01-08T03:31:48.490Z,99966.38
2019-01-08T03:34:14.746Z,99969.38
2019-01-08T03:36:41.004Z,99960.82
2019-01-08T03:39:07.232Z,99964.23
2019-01-08T03:41:33.476Z,99966.34
2019-01-08T03:43:59.611Z,99968.13
2019-01-08T03:46:25.865Z,99950.98
2019-01-08T03:48:52.104Z,99967.67
2019-01-08T03:51:18.362Z,99956.05
2019-01-08T03:53:44.584Z,99950.04
2019-01-08T03:56:10.844Z,99953.38
2019-01-08T03:58:37.076Z,99951.67
2019-01-08T04:01:03.327Z,99948.65
2019-01-08T04:03:29.567Z,99946.08
2019-01-08T04:05:55.817Z,99950.31
2019-01-08T04:08:22.054Z,99953.30
2019-01-08T04:10:48.298Z,99958.37
2019-01-08T04:13:14.550Z,99960.94
2019-01-08T04:15:40.810Z,99957.92
2019-01-08T04:18:06.938Z,99961.73
2019-01-08T04:20:33.225Z,99950.16
2019-01-08T04:22:59.420Z,99952.36
2019-01-08T04:25:25.673Z,99944.72
2019-01-08T04:27:51.911Z,99944.30
2019-01-08T04:30:18.042Z,99947.70
2019-01-08T04:32:44.192Z,99944.72
2019-01-08T04:35:10.428Z,99940.41
2019-01-08T04:37:36.564Z,99941.27
2019-01-08T04:43:03.851Z,99937.76
2019-01-08T04:45:30.093Z,99946.68
2019-01-08T04:47:56.234Z,99940.22
2019-01-08T04:50:22.474Z,99943.62
2019-01-08T04:52:48.723Z,99948.31
2019-01-08T04:55:14.855Z,99943.62
2019-01-08T04:57:41.101Z,99937.65
2019-01-08T05:00:48.639Z,99929.94
2019-01-08T05:03:14.779Z,99934.63
2019-01-08T05:05:41.015Z,99929.86
2019-01-08T05:08:07.266Z,99922.59
2019-01-08T05:10:33.502Z,99924.27
2019-01-08T05:12:59.755Z,99915.68
2019-01-08T05:15:25.994Z,99915.68
2019-01-08T05:17:52.245Z,99914.47
2019-01-08T05:20:18.492Z,99928.57
2019-01-08T05:22:44.740Z,99944.00
2019-01-08T05:25:10.976Z,99938.90
2019-01-08T05:27:37.224Z,99933.75
2019-01-08T05:32:53.566Z,99928.19
2019-01-08T05:35:19.798Z,99932.47
2019-01-08T05:37:46.047Z,99928.16
2019-01-08T05:40:12.283Z,99926.88
2019-01-08T05:42:38.535Z,99927.70
2019-01-08T05:45:04.776Z,99935.41
2019-01-08T05:47:31.028Z,99936.28
2019-01-08T05:49:57.163Z,99929.86
2019-01-08T05:52:23.404Z,99933.33
2019-01-08T05:54:49.558Z,99929.89
2019-01-08T05:57:15.699Z,99925.59
2019-01-08T05:59:41.929Z,99925.59
2019-01-08T06:02:08.169Z,99923.05
2019-01-08T06:04:34.413Z,99934.20
2019-01-08T06:07:00.652Z,99940.63
2019-01-08T06:09:26.906Z,99938.90
2019-01-08T06:11:53.137Z,99944.48
2019-01-08T06:14:19.289Z,99942.33
2019-01-08T06:16:45.517Z,99940.63
2019-01-08T06:19:11.769Z,99939.80
2019-01-08T06:21:38.001Z,99940.63
2019-01-08T06:24:04.292Z,99939.34
2019-01-08T06:26:30.526Z,99937.19
2019-01-08T06:28:56.761Z,99936.25
2019-01-08T06:31:22.916Z,99942.25
2019-01-08T06:33:49.162Z,99931.11
2019-01-08T06:36:15.301Z,99942.67
2019-01-08T06:38:41.540Z,99943.58
2019-01-08T06:41:07.776Z,99946.15
2019-01-08T06:43:34.020Z,99948.27
2019-01-08T06:46:00.161Z,99954.66
2019-01-08T06:48:26.413Z,99956.36
2019-01-08T06:50:56.198Z,99957.68
2019-01-08T06:53:20.913Z,99946.11
2019-01-08T06:55:47.145Z,99952.58
2019-01-08T06:58:13.386Z,99944.86
2019-01-08T07:00:39.627Z,99942.75
2019-01-08T07:03:05.856Z,99938.89
2019-01-08T07:05:32.001Z,99943.20
2019-01-08T07:07:58.238Z,99947.48
2019-01-08T07:10:24.384Z,99943.16
2019-01-08T07:12:50.619Z,99950.42
2019-01-08T07:15:16.871Z,99954.70
2019-01-08T07:17:43.001Z,99956.39
2019-01-08T07:20:09.248Z,99953.78
2019-01-08T07:22:35.475Z,99958.05
2019-01-08T07:25:01.630Z,99960.55
2019-01-08T07:27:27.744Z,99959.22
2019-01-08T07:29:53.988Z,99960.47
2019-01-08T07:32:20.215Z,99953.63
2019-01-08T07:34:46.465Z,99963.53
2019-01-08T07:37:12.701Z,99966.94
2019-01-08T07:39:38.955Z,99973.77
2019-01-08T07:42:05.087Z,99983.55
2019-01-08T07:44:31.330Z,99979.70
2019-01-08T07:46:57.473Z,99978.70
2019-01-08T07:49:23.725Z,99986.50
2019-01-08T07:51:49.961Z,99989.44
2019-01-08T07:54:16.213Z,99994.08
2019-01-08T07:56:42.449Z,99999.63
2019-01-08T07:59:08.684Z,99994.08
2019-01-08T08:01:34.836Z,99996.64
2019-01-08T08:04:01.067Z,99990.12
2019-01-08T08:06:27.307Z,99992.66
2019-01-08T08:08:53.443Z,99996.50
2019-01-08T08:11:19.687Z,99990.45
2019-01-08T08:13:45.930Z,99999.45
2019-01-08T08:16:12.076Z,99990.08
2019-01-08T08:18:38.312Z,99986.68
2019-01-08T08:21:04.469Z,99992.66
2019-01-08T08:23:30.699Z,99993.48
2019-01-08T08:25:56.853Z,99996.50
2019-01-08T08:28:23.090Z,99997.38
2019-01-08T08:30:49.329Z,100005.04
2019-01-08T08:33:15.569Z,100007.61
2019-01-08T08:35:41.827Z,99998.84
2019-01-08T08:38:08.062Z,100011.83
2019-01-08T08:40:34.321Z,100012.23
2019-01-08T08:43:00.590Z,100017.02
2019-01-08T08:45:26.796Z,100017.93
2019-01-08T08:47:53.020Z,100026.55
2019-01-08T08:50:19.157Z,100017.16
2019-01-08T08:52:45.321Z,100025.27
2019-01-08T08:55:11.576Z,100026.14
2019-01-08T08:57:37.716Z,100022.38
2019-01-08T09:00:45.293Z,100024.13
2019-01-08T09:03:11.428Z,100019.41
2019-01-08T09:05:37.564Z,100028.85
2019-01-08T09:08:03.709Z,100041.24
2019-01-08T09:10:29.940Z,100030.50
2019-01-08T09:12:57.503Z,100032.12
2019-01-08T09:15:24.327Z,100036.78
2019-01-08T09:17:50.472Z,100037.30
2019-01-08T09:20:16.714Z,100035.23
2019-01-08T09:22:42.960Z,100030.09
2019-01-08T09:25:09.200Z,100035.69
2019-01-08T09:27:35.450Z,100033.13
2019-01-08T09:30:01.587Z,100035.28
2019-01-08T09:32:27.827Z,100030.64
2019-01-08T09:34:54.053Z,100033.30
2019-01-08T09:37:20.205Z,100029.12
2019-01-08T09:39:46.437Z,100033.94
2019-01-08T09:42:12.684Z,100024.98
2019-01-08T09:44:38.814Z,100022.45
2019-01-08T09:47:04.966Z,100023.82
2019-01-08T09:49:31.189Z,100027.80
2019-01-08T09:51:57.341Z,100030.00
2019-01-08T09:54:23.568Z,100021.05
2019-01-08T09:56:49.819Z,100029.22
2019-01-08T09:59:16.080Z,100032.20
2019-01-08T10:01:42.317Z,100026.65
2019-01-08T10:04:08.556Z,100027.59
2019-01-08T10:06:34.689Z,100033.20
2019-01-08T10:09:00.930Z,100035.02
2019-01-08T10:11:27.168Z,100038.91
2019-01-08T10:13:53.425Z,100036.83
2019-01-08T10:16:19.563Z,100029.98
2019-01-08T10:18:45.712Z,100030.05
2019-01-08T10:21:11.956Z,100037.32
2019-01-08T10:23:38.207Z,100034.33
2019-01-08T10:26:04.346Z,100037.84
2019-01-08T10:28:30.579Z,100030.13
2019-01-08T10:30:56.831Z,100025.81
2019-01-08T10:33:23.113Z,100031.45
2019-01-08T10:35:49.351Z,100031.98
2019-01-08T10:38:15.583Z,100026.41
2019-01-08T10:40:41.830Z,100026.02
2019-01-08T10:43:08.087Z,100027.73
2019-01-08T10:45:34.568Z,100029.05
2019-01-08T10:48:02.463Z,100029.50
2019-01-08T10:50:28.698Z,100031.69
2019-01-08T10:52:54.953Z,99867.59
2019-01-08T10:55:21.307Z,100039.52
2019-01-08T10:57:47.537Z,100037.43
2019-01-08T11:00:13.795Z,100039.62
2019-01-08T11:02:40.016Z,100042.26
2019-01-08T11:05:06.268Z,100042.25
2019-01-08T11:07:32.409Z,100046.57
2019-01-08T11:09:58.636Z,100045.70
2019-01-08T11:12:24.886Z,100044.45
2019-01-08T11:14:51.137Z,100047.89
2019-01-08T11:17:17.375Z,100034.56
2019-01-08T11:19:43.620Z,100047.05
2019-01-08T11:22:09.861Z,100049.17
2019-01-08T11:24:36.093Z,100047.47
2019-01-08T11:27:02.339Z,100050.50
2019-01-08T11:29:28.471Z,100050.08
2019-01-08T11:31:54.725Z,100048.76
2019-01-08T11:34:20.960Z,100057.36
2019-01-08T11:36:47.111Z,100053.87
2019-01-08T11:39:13.361Z,100044.41
2019-01-08T11:41:39.598Z,100045.70
2019-01-08T11:44:05.837Z,100046.95
2019-01-08T11:46:32.080Z,100049.98
2019-01-08T11:48:58.312Z,100049.11
2019-01-08T11:51:24.557Z,100051.69
2019-01-08T11:53:50.782Z,100040.09
2019-01-08T11:56:17.053Z,100049.50
2019-01-08T11:58:43.292Z,100044.34
2019-01-08T12:01:09.533Z,100043.09
2019-01-08T12:03:35.787Z,100053.42
2019-01-08T12:06:02.051Z,100049.11
2019-01-08T12:08:28.189Z,100051.59
2019-01-08T12:10:54.420Z,100055.00
2019-01-08T12:13:20.684Z,100054.97
2019-01-08T12:15:46.912Z,100058.34
2019-01-08T12:18:13.060Z,100056.22
2019-01-08T12:20:39.300Z,100057.52
2019-01-08T12:23:05.547Z,100057.13
2019-01-08T12:25:31.781Z,100057.06
2019-01-08T12:27:58.041Z,100051.91
2019-01-08T12:30:24.278Z,100055.31
2019-01-08T12:32:50.520Z,100045.02
2019-01-08T12:35:16.756Z,100048.43
2019-01-08T12:37:43.003Z,100051.31
2019-01-08T12:40:09.138Z,100050.37
2019-01-08T12:42:35.396Z,100050.79
2019-01-08T12:45:01.642Z,100046.52
2019-01-08T12:47:27.788Z,100043.07
2019-01-08T12:49:54.461Z,100042.31
2019-01-08T12:52:22.192Z,100043.63
2019-01-08T12:54:48.460Z,100058.14
2019-01-08T12:57:14.701Z,100041.82
2019-01-08T12:59:40.927Z,100040.46
2019-01-08T13:02:14.657Z,100033.61
2019-01-08T13:04:35.236Z,100039.21
2019-01-08T13:07:01.494Z,100042.23
2019-01-08T13:09:27.713Z,100037.51
2019-01-08T13:11:53.941Z,100039.24
2019-01-08T13:14:39.925Z,100032.84
2019-01-08T13:17:11.328Z,99955.04
2019-01-08T13:19:34.320Z,100030.20
2019-01-08T13:22:00.555Z,100043.00
2019-01-08T13:24:26.698Z,100042.12
2019-01-08T13:26:52.942Z,100042.55
2019-01-08T13:29:19.184Z,100045.08
2019-01-08T13:31:45.413Z,100050.64
2019-01-08T13:34:11.570Z,100056.20
2019-01-08T13:36:37.802Z,100050.64
2019-01-08T13:39:45.360Z,100057.91
2019-01-08T13:42:11.612Z,100058.33
2019-01-08T13:44:37.867Z,100055.30
2019-01-08T13:47:04.120Z,100059.16
2019-01-08T13:49:30.263Z,100058.33
2019-01-08T13:51:56.500Z,100055.71
2019-01-08T13:54:22.649Z,100066.84
2019-01-08T13:56:48.880Z,100061.65
2019-01-08T13:59:15.129Z,100059.91
2019-01-08T14:01:41.365Z,100068.16
2019-01-08T14:04:07.613Z,100061.31
2019-01-08T14:06:33.743Z,100068.16
2019-01-08T14:08:59.991Z,100072.03
2019-01-08T14:11:26.211Z,100069.45
2019-01-08T14:13:52.452Z,100075.43
2019-01-08T14:16:18.713Z,100073.27
2019-01-08T14:18:44.966Z,100072.81
2019-01-08T14:21:11.125Z,100073.65
2019-01-08T14:23:37.366Z,100078.80
2019-01-08T14:26:03.610Z,100089.50
2019-01-08T14:28:29.839Z,100083.14
2019-01-08T14:30:56.093Z,100082.70
2019-01-08T14:33:22.318Z,100081.41
2019-01-08T14:35:48.566Z,100078.38
2019-01-08T14:38:14.705Z,100080.95
2019-01-08T14:40:40.865Z,100086.47
2019-01-08T14:43:13.965Z,100089.50
2019-01-08T14:45:35.251Z,100090.79
2019-01-08T14:48:01.487Z,100099.33
2019-01-08T14:50:27.728Z,100100.08
2019-01-08T14:52:53.980Z,100100.00
2019-01-08T14:55:20.226Z,100102.07
2019-01-08T14:57:46.434Z,100108.91
2019-01-08T15:02:49.675Z,100110.92
2019-01-08T15:05:14.544Z,100118.64
2019-01-08T15:07:40.761Z,100119.47
2019-01-08T15:13:01.272Z,100122.00
2019-01-08T15:15:27.618Z,100128.37
2019-01-08T15:17:53.861Z,100126.23
2019-01-08T15:20:20.023Z,100126.22
2019-01-08T15:22:46.257Z,100124.02
2019-01-08T15:25:12.505Z,100121.84
2019-01-08T15:27:38.759Z,100124.84
2019-01-08T15:30:46.308Z,100132.09
2019-01-08T15:33:12.544Z,100133.78
2019-01-08T15:35:38.812Z,100133.33
2019-01-08T15:38:05.062Z,100147.88
2019-01-08T15:40:31.266Z,100144.49
2019-01-08T15:42:57.416Z,100145.87
2019-01-08T15:45:23.659Z,100145.05
2019-01-08T15:47:49.909Z,100145.09
2019-01-08T15:50:16.031Z,100146.33
2019-01-08T15:52:42.280Z,100146.73
2019-01-08T15:55:08.517Z,100150.50
2019-01-08T15:57:34.765Z,100146.64
2019-01-08T16:00:01.011Z,100155.55
2019-01-08T16:02:27.257Z,100159.41
2019-01-08T16:04:53.389Z,100158.58
2019-01-08T16:07:19.556Z,100163.63
2019-01-08T16:09:45.812Z,100167.84
2019-01-08T16:12:11.956Z,100165.17
2019-01-08T16:14:38.216Z,100173.29
2019-01-08T16:17:04.467Z,100176.69
2019-01-08T16:19:30.701Z,100179.20
2019-01-08T16:21:56.962Z,100187.69
2019-01-08T16:24:23.187Z,100187.31
2019-01-08T16:26:49.438Z,100184.28
2019-01-08T16:29:15.665Z,100188.50
2019-01-08T16:31:41.943Z,100190.14
2019-01-08T16:34:08.089Z,100183.66
2019-01-08T16:36:34.319Z,100193.63
2019-01-08T16:39:00.574Z,100186.91
2019-01-08T16:41:26.824Z,100192.15
2019-01-08T16:43:53.081Z,100196.10
2019-01-08T16:46:19.360Z,100201.30
2019-01-08T16:48:45.572Z,100200.43
2019-01-08T16:51:11.807Z,100199.96
2019-01-08T16:56:12.485Z,100204.30
2019-01-08T16:58:38.733Z,100213.64
2019-01-08T17:01:04.967Z,100216.20
2019-01-08T17:03:31.210Z,100220.44
2019-01-08T17:05:57.442Z,100220.73
2019-01-08T17:08:23.584Z,100237.43
2019-01-08T17:10:49.828Z,100238.72
2019-01-08T17:13:15.981Z,100237.31
2019-01-08T17:15:42.224Z,100240.66
2019-01-08T17:20:42.862Z,100247.66
2019-01-08T17:23:09.102Z,100247.84
2019-01-08T17:25:35.335Z,100245.61
2019-01-08T17:28:01.488Z,100249.35
2019-01-08T17:30:27.719Z,100247.48
2019-01-08T17:32:53.973Z,100251.96
2019-01-08T17:35:20.113Z,100261.97
2019-01-08T17:37:46.251Z,100259.20
2019-01-08T17:40:12.502Z,100257.66
2019-01-08T17:42:38.733Z,100264.63
2019-01-08T17:45:46.300Z,100259.84
2019-01-08T17:48:12.585Z,100264.88
2019-01-08T17:50:39.098Z,100264.22
2019-01-08T17:53:05.334Z,100264.92
2019-01-08T17:55:31.584Z,100272.56
2019-01-08T17:58:37.331Z,100269.94
2019-01-08T18:04:04.204Z,100267.27
2019-01-08T18:06:30.432Z,100279.19
2019-01-08T18:08:56.672Z,100281.14
2019-01-08T18:11:22.907Z,100276.25
2019-01-08T18:13:49.141Z,100272.62
2019-01-08T18:16:15.383Z,100273.50
2019-01-08T18:18:41.605Z,100280.09
2019-01-08T18:21:07.854Z,100274.59
2019-01-08T18:23:34.075Z,100272.89
2019-01-08T18:26:00.317Z,100277.88
2019-01-08T18:28:26.549Z,100285.90
2019-01-08T18:30:52.793Z,100285.53
2019-01-08T18:33:19.024Z,100281.60
2019-01-08T18:35:45.269Z,100287.36
2019-01-08T18:38:11.504Z,100295.18
2019-01-08T18:40:37.744Z,100287.52
2019-01-08T18:43:03.864Z,100293.31
2019-01-08T18:45:30.111Z,100295.16
2019-01-08T18:47:56.349Z,100288.34
2019-01-08T18:50:22.588Z,100283.30
2019-01-08T18:52:48.819Z,100288.44
2019-01-08T18:55:15.071Z,100286.96
2019-01-08T18:57:41.304Z,100293.95
2019-01-08T19:00:48.932Z,100289.05
2019-01-08T19:03:15.182Z,100290.94
2019-01-08T19:05:41.430Z,100284.74
2019-01-08T19:08:07.671Z,100285.41
2019-01-08T19:10:33.815Z,100282.17
2019-01-08T19:13:00.050Z,100287.23
2019-01-08T19:15:26.402Z,100287.42
2019-01-08T19:17:52.638Z,100286.46
2019-01-08T19:20:18.875Z,100290.92
2019-01-08T19:22:45.121Z,100290.98
2019-01-08T19:25:11.348Z,100293.25
2019-01-08T19:27:37.497Z,100296.23
2019-01-08T19:33:17.114Z,100300.67
2019-01-08T19:35:43.352Z,100307.98
2019-01-08T19:38:09.523Z,100305.47
2019-01-08T19:40:35.658Z,100305.86
2019-01-08T19:43:01.903Z,100309.27
2019-01-08T19:45:28.131Z,100309.38
2019-01-08T19:47:54.294Z,100304.83
2019-01-08T19:50:20.555Z,100303.56
2019-01-08T19:52:46.798Z,100305.70
2019-01-08T19:55:13.046Z,100313.89
2019-01-08T19:57:39.293Z,100316.05
2019-01-08T20:02:55.638Z,100311.37
2019-01-08T20:05:21.872Z,100318.28
2019-01-08T20:07:48.113Z,100309.86
2019-01-08T20:10:14.384Z,100321.14
2019-01-08T20:12:40.486Z,100318.32
2019-01-08T20:18:07.736Z,100323.71
2019-01-08T20:20:33.970Z,100330.55
2019-01-08T20:23:00.418Z,100327.50
2019-01-08T20:25:26.647Z,100327.20
2019-01-08T20:27:52.798Z,100323.81
2019-01-08T20:30:19.033Z,100325.20
2019-01-08T20:32:45.288Z,100331.16
2019-01-08T20:35:11.525Z,100323.48
2019-01-08T20:37:37.775Z,100327.51
2019-01-08T20:43:11.469Z,100327.04
2019-01-08T20:45:37.702Z,100334.05
2019-01-08T20:48:03.867Z,100319.08
2019-01-08T20:50:30.095Z,100320.31
2019-01-08T20:52:58.060Z,100321.84
2019-01-08T20:55:24.496Z,100319.50
2019-01-08T20:57:50.651Z,100324.24
2019-01-08T21:00:16.909Z,100332.06
2019-01-08T21:02:43.248Z,100319.47
2019-01-08T21:05:09.492Z,100324.69
2019-01-08T21:07:35.747Z,100327.76
2019-01-08T21:10:02.001Z,100326.39
2019-01-08T21:12:28.240Z,100332.17
2019-01-08T21:14:54.493Z,100336.56
2019-01-08T21:17:20.735Z,100332.33
2019-01-08T21:19:46.886Z,100345.92
2019-01-08T21:22:13.120Z,100341.80
2019-01-08T21:24:39.353Z,100337.91
2019-01-08T21:27:05.585Z,100348.21
2019-01-08T21:29:31.741Z,100347.45
2019-01-08T21:31:57.968Z,100345.83
2019-01-08T21:34:24.219Z,100337.72
2019-01-08T21:36:50.364Z,100343.78
2019-01-08T21:39:16.603Z,100344.16
2019-01-08T21:41:42.853Z,100347.12
2019-01-08T21:44:09.120Z,100346.06
2019-01-08T21:46:35.356Z,100343.55
2019-01-08T21:49:01.724Z,100343.55
2019-01-08T21:51:27.846Z,100350.45
2019-01-08T21:53:54.097Z,100342.83
2019-01-08T21:56:20.399Z,100347.38
2019-01-08T21:58:46.646Z,100347.77
2019-01-08T22:01:12.898Z,100352.97
2019-01-08T22:03:39.125Z,100354.22
2019-01-08T22:06:05.279Z,100353.73
2019-01-08T22:08:31.609Z,100359.87
2019-01-08T22:10:57.860Z,100361.16
2019-01-08T22:13:23.999Z,100358.02
2019-01-08T22:15:50.146Z,100361.06
2019-01-08T22:18:16.281Z,100374.72
2019-01-08T22:20:42.521Z,100371.58
2019-01-08T22:23:08.850Z,100374.08
2019-01-08T22:25:35.089Z,100378.86
2019-01-08T22:28:01.322Z,100380.61
2019-01-08T22:30:27.569Z,100382.16
2019-01-08T22:32:53.796Z,100386.06
2019-01-08T22:35:20.044Z,100386.66
2019-01-08T22:37:46.277Z,100384.03
2019-01-08T22:40:12.551Z,100392.16
2019-01-08T22:42:38.779Z,100385.64
2019-01-08T22:45:46.338Z,100389.88
2019-01-08T22:48:12.486Z,100385.23
2019-01-08T22:50:38.734Z,100390.42
2019-01-08T22:53:04.981Z,100400.24
2019-01-08T22:55:31.146Z,100402.44
2019-01-08T22:58:38.690Z,100403.79
2019-01-08T23:03:38.896Z,100416.09
2019-01-08T23:06:05.142Z,100416.02
2019-01-08T23:08:31.376Z,100418.08
2019-01-08T23:10:57.513Z,100415.95
2019-01-08T23:13:23.750Z,100424.15
2019-01-08T23:15:49.994Z,100425.09
2019-01-08T23:18:16.232Z,100433.22
2019-01-08T23:20:42.466Z,100436.64
2019-01-08T23:23:08.607Z,100439.36
2019-01-08T23:25:34.940Z,100432.41
2019-01-08T23:28:01.190Z,100448.29
2019-01-08T23:30:27.426Z,100444.84
2019-01-08T23:32:53.560Z,100454.33
2019-01-08T23:35:19.870Z,100451.78
2019-01-08T23:37:46.137Z,100450.87
2019-01-08T23:40:12.460Z,100449.30
2019-01-08T23:42:38.704Z,100455.34
2019-01-08T23:48:18.288Z,100459.48
2019-01-08T23:50:44.509Z,100470.66
2019-01-08T23:53:52.071Z,100457.33
2019-01-08T23:56:18.296Z,100461.13
2019-01-08T23:58:44.568Z,100467.61
